OYZM weather

Al-Hazm Airport
Al-Hazm, Al Jawf Governorate, Yemen

Public forecast

Using degrees Celsius for public forecast. Weather courtesy of forecast.io.

Closest aviation weather report (METAR) to Al-Hazm Airport

Report is more than 6 hours old.

Closest report is Mareb Airport, 54.0 nm (99.9 km) SE. Retrieved 2016/11/08 07:00 UTC (4 years ago):

OYMB 080700Z 16004KT 9999 FEW035 BKN180 21/09 Q1024

Closest aviation forecast (TAF) to Al-Hazm Airport

Forecast is more than 12 hours old.

Closest forecast is Sana'a International Airport, 54.3 nm (100.5 km) SW. Retrieved 2015/03/25 12:00 UTC (5 years ago):

TAF OYSN 250822Z 2512/2618 07010KT 8000 SCT030 TEMPO 2512/2518 28010G20KT 5000 TSRA FEW025CB BKN030 BECMG 2520/2522 VRB03KT BECMG 2606/2608 07010KT TEMPO 2610/2618 TSRA FEW025CB BKN030